createdAt,value
2019-03-06T00:00:27.510Z,1012.58
2019-03-06T00:03:57.610Z,1010.91
2019-03-06T00:07:27.740Z,1010.05
2019-03-06T00:10:57.980Z,1009.28
2019-03-06T00:14:28.060Z,1009.12
2019-03-06T00:17:58.360Z,1009.14
2019-03-06T00:21:28.437Z,1009.13
2019-03-06T00:24:58.509Z,1008.94
2019-03-06T00:28:28.610Z,1008.55
2019-03-06T00:31:58.650Z,1008.56
2019-03-06T00:35:32.550Z,1008.51
2019-03-06T00:39:05.843Z,1008.1
2019-03-06T00:42:41.039Z,1007.97
2019-03-06T00:46:11.320Z,1007.54
2019-03-06T00:49:41.320Z,1007.37
2019-03-06T00:53:11.409Z,1007.11
2019-03-06T00:56:41.489Z,1006.35
2019-03-06T01:00:12.570Z,1006.14
2019-03-06T01:03:42.663Z,1005.74
2019-03-06T01:07:12.749Z,1005.83
2019-03-06T01:10:42.830Z,1005.6
2019-03-06T01:14:13.055Z,1005.64
2019-03-06T01:17:43.399Z,1005.9
2019-03-06T01:21:13.449Z,1006.35
2019-03-06T01:24:43.519Z,1006.47
2019-03-06T01:28:13.609Z,1006.42
2019-03-06T01:31:43.589Z,1006.7
2019-03-06T01:35:24.679Z,1007.15
2019-03-06T01:40:22.079Z,1007.77
2019-03-06T01:43:57.799Z,1007.91
2019-03-06T01:47:27.909Z,1008.06
2019-03-06T01:50:58.080Z,1007.94
2019-03-06T01:54:28.059Z,1007.89
2019-03-06T01:57:58.139Z,1007.57
2019-03-06T02:00:17.479Z,1007.81
2019-03-06T02:03:47.489Z,1007.92
2019-03-06T02:07:17.900Z,1007.87
2019-03-06T02:10:48.121Z,1008.43
2019-03-06T02:14:18.230Z,1007.96
2019-03-06T02:17:48.332Z,1007.89
2019-03-06T02:21:18.449Z,1007.32
2019-03-06T02:24:48.481Z,1007.41
2019-03-06T02:28:18.506Z,1008.09
2019-03-06T02:31:48.709Z,1008.84
2019-03-06T02:35:18.843Z,1009.28
2019-03-06T02:38:48.952Z,1009.71
2019-03-06T02:42:19.291Z,1009.45
2019-03-06T02:45:49.451Z,1008.89
2019-03-06T02:49:19.440Z,1008.36
2019-03-06T02:52:49.590Z,1007.73
2019-03-06T02:56:19.751Z,1007.35
2019-03-06T02:59:55.909Z,1007.02
2019-03-06T03:03:35.067Z,1006.81
2019-03-06T03:07:08.281Z,1006.93
2019-03-06T03:10:38.482Z,1007.21
2019-03-06T03:14:08.541Z,1007.34
2019-03-06T03:17:38.519Z,1007.65
2019-03-06T03:21:08.781Z,1008.31
2019-03-06T03:24:38.870Z,1008.74
2019-03-06T03:28:08.950Z,1009.18
2019-03-06T03:31:39.011Z,1009.37
2019-03-06T03:35:09.643Z,1009.88
2019-03-06T03:38:39.730Z,1010.34
2019-03-06T03:42:09.883Z,1010.51
2019-03-06T03:45:39.923Z,1010.8
2019-03-06T03:49:10.243Z,1010.84
2019-03-06T03:52:40.280Z,1011.21
2019-03-06T03:56:10.391Z,1011.43
2019-03-06T03:59:40.502Z,1010.96
2019-03-06T04:00:17.067Z,1010.62
2019-03-06T04:03:48.241Z,1010.4
2019-03-06T04:07:18.752Z,1009.78
2019-03-06T04:10:48.792Z,1009.51
2019-03-06T04:14:18.990Z,1009.18
2019-03-06T04:17:49.061Z,1008.68
2019-03-06T04:21:19.101Z,1008.81
2019-03-06T04:24:49.091Z,1008.62
2019-03-06T04:28:19.200Z,1008.75
2019-03-06T04:31:49.281Z,1009.03
2019-03-06T04:35:19.372Z,1008.69
2019-03-06T04:38:49.431Z,1008.53
2019-03-06T04:42:19.420Z,1009
2019-03-06T04:45:49.776Z,1009.04
2019-03-06T04:49:19.820Z,1008.74
2019-03-06T04:52:49.830Z,1008.81
2019-03-06T04:56:19.930Z,1009.03
2019-03-06T04:59:49.980Z,1009.38
2019-03-06T05:03:19.991Z,1009.59
2019-03-06T05:06:51.241Z,1009.89
2019-03-06T05:10:21.250Z,1010.52
2019-03-06T05:13:51.330Z,1010.88
2019-03-06T05:17:36.361Z,1011.59
2019-03-06T05:21:06.431Z,1011.33
2019-03-06T05:24:36.421Z,1010.36
2019-03-06T05:28:06.510Z,1010.07
2019-03-06T05:31:36.482Z,1010.51
2019-03-06T05:35:13.871Z,1010.96
2019-03-06T05:38:48.301Z,1011
2019-03-06T05:42:18.520Z,1010.91
2019-03-06T05:45:48.661Z,1011.18
2019-03-06T05:49:18.731Z,1011.53
2019-03-06T05:52:48.801Z,1011.86
2019-03-06T05:56:18.961Z,1012.41
2019-03-06T05:59:48.981Z,1013.1
2019-03-06T06:00:17.731Z,1013.08
2019-03-06T06:03:47.781Z,1013.23
2019-03-06T06:07:18.781Z,1013.08
2019-03-06T06:10:48.954Z,1012.96
2019-03-06T06:14:19.171Z,1012.93
2019-03-06T06:17:49.271Z,1013.87
2019-03-06T06:22:40.346Z,1014.95
2019-03-06T06:26:10.458Z,1014.92
2019-03-06T06:29:40.682Z,1015.4
2019-03-06T06:33:10.652Z,1015.61
2019-03-06T06:36:40.763Z,1015.3
2019-03-06T06:40:11.178Z,1014.61
2019-03-06T06:43:41.173Z,1014
2019-03-06T06:47:11.142Z,1013.5
2019-03-06T06:50:45.949Z,1013.65
2019-03-06T06:54:25.364Z,1014.09
2019-03-06T06:58:12.512Z,1014.38
2019-03-06T07:02:16.282Z,1014.31
2019-03-06T07:05:53.993Z,1014.47
2019-03-06T07:11:51.033Z,1015.38
2019-03-06T07:17:49.243Z,1015.77
2019-03-06T07:21:33.724Z,1016.27
2019-03-06T07:25:42.583Z,1016.67
2019-03-06T07:29:22.005Z,1016.9
2019-03-06T07:32:59.895Z,1016.94
2019-03-06T07:36:49.053Z,1016.46
2019-03-06T07:40:25.293Z,1016.99
2019-03-06T07:44:37.893Z,1017.25
2019-03-06T07:48:17.493Z,1017.19
2019-03-06T07:52:01.114Z,1017.4
2019-03-06T07:55:39.184Z,1018.06
2019-03-06T07:59:09.274Z,1019.37
2019-03-06T08:00:18.331Z,1019.74
2019-03-06T08:03:59.934Z,1020.4
2019-03-06T08:07:30.184Z,1021.36
2019-03-06T08:11:00.818Z,1021.55
2019-03-06T08:17:00.615Z,1020.5
2019-03-06T08:23:11.439Z,1019.09
2019-03-06T08:26:41.475Z,1019.03
2019-03-06T08:30:12.024Z,1018.61
2019-03-06T08:33:42.045Z,1018.54
2019-03-06T08:37:12.078Z,1019.33
2019-03-06T08:40:42.155Z,1019.86
2019-03-06T08:44:12.205Z,1020.72
2019-03-06T08:47:51.729Z,1021.42
2019-03-06T08:51:32.765Z,1022.03
2019-03-06T08:55:16.308Z,1022.32
2019-03-06T08:58:54.296Z,1023.19
2019-03-06T09:02:34.337Z,1023.59
2019-03-06T09:06:26.066Z,1024.31
2019-03-06T09:10:38.456Z,1025.13
2019-03-06T09:14:18.337Z,1025.82
2019-03-06T09:18:27.757Z,1026.39
2019-03-06T09:22:19.457Z,1027.4
2019-03-06T09:25:57.960Z,1028.45
2019-03-06T09:29:37.598Z,1028.62
2019-03-06T09:33:16.016Z,1028.05
2019-03-06T09:38:46.069Z,1028.32
2019-03-06T09:43:27.629Z,1028.39
2019-03-06T09:48:38.449Z,1028.82
2019-03-06T09:54:48.249Z,1029.22
2019-03-06T10:00:32.746Z,1030.84
2019-03-06T10:05:43.209Z,1033.23
2019-03-06T10:09:21.130Z,1034.26
2019-03-06T10:12:58.831Z,1035.29
2019-03-06T10:16:38.651Z,1036.56
2019-03-06T10:20:14.661Z,1037.91
2019-03-06T10:23:52.171Z,1038.38
2019-03-06T10:27:22.562Z,1039.1
2019-03-06T10:31:01.683Z,1040.26
2019-03-06T10:34:32.342Z,1041.15
2019-03-06T10:38:02.763Z,1041.4
2019-03-06T10:41:32.983Z,1041.65
2019-03-06T10:45:04.055Z,1043
2019-03-06T10:48:34.144Z,1044.23
2019-03-06T10:52:04.384Z,1045.82
2019-03-06T10:55:34.875Z,1047.25
2019-03-06T10:59:05.265Z,1048.05
2019-03-06T11:02:35.481Z,1049.01
2019-03-06T11:06:05.877Z,1049.75
2019-03-06T11:09:36.117Z,1052.3
2019-03-06T11:13:09.534Z,1052.86
2019-03-06T11:16:39.778Z,1053.53
2019-03-06T11:20:12.282Z,1054
2019-03-06T11:23:43.418Z,1055.19
2019-03-06T11:27:13.559Z,1055.16
2019-03-06T11:30:48.329Z,1056.26
2019-03-06T11:34:18.570Z,1058.38
2019-03-06T11:37:49.250Z,1058.3
2019-03-06T11:41:19.430Z,1058.76
2019-03-06T11:44:49.521Z,1058.3
2019-03-06T11:48:20.101Z,1055.35
2019-03-06T11:51:50.382Z,1051.15
2019-03-06T11:55:20.523Z,1050.85
2019-03-06T11:58:50.733Z,1051.24
2019-03-06T12:00:29.497Z,1049.77
2019-03-06T12:03:59.614Z,1045.44
2019-03-06T12:07:29.794Z,1043.2
2019-03-06T12:10:59.885Z,1040.04
2019-03-06T12:14:30.056Z,1036.89
2019-03-06T12:18:00.286Z,1034.61
2019-03-06T12:21:30.425Z,1033.38
2019-03-06T12:25:01.688Z,1032.99
2019-03-06T12:28:31.777Z,1033.47
2019-03-06T12:32:03.351Z,1033.7
2019-03-06T12:35:33.486Z,1035.09
2019-03-06T12:39:04.548Z,1040.65
2019-03-06T12:42:34.907Z,1043.9
2019-03-06T12:46:22.152Z,1048.48
2019-03-06T12:49:53.252Z,1049.88
2019-03-06T12:53:23.487Z,1050.52
2019-03-06T12:56:53.593Z,1052.33
2019-03-06T13:00:23.987Z,1051.16
2019-03-06T13:03:54.348Z,1049.14
2019-03-06T13:07:24.608Z,1044.51
2019-03-06T13:10:54.631Z,1040.82
2019-03-06T13:14:24.711Z,1038.09
2019-03-06T13:17:54.910Z,1040.04
2019-03-06T13:21:25.096Z,1041.15
2019-03-06T13:24:55.243Z,1040.22
2019-03-06T13:28:25.519Z,1039.61
2019-03-06T13:31:55.566Z,1039.29
2019-03-06T13:35:26.591Z,1037.76
2019-03-06T13:39:05.806Z,1036.99
2019-03-06T13:42:36.553Z,1036.07
2019-03-06T13:46:06.650Z,1034.39
2019-03-06T13:49:36.806Z,1033.18
2019-03-06T13:53:06.971Z,1032.69
2019-03-06T13:56:38.517Z,1031.59
2019-03-06T14:00:14.393Z,1030.66
2019-03-06T14:03:44.449Z,1029.47
2019-03-06T14:07:14.496Z,1029.29
2019-03-06T14:10:44.590Z,1028.56
2019-03-06T14:14:14.656Z,1029.37
2019-03-06T14:17:44.924Z,1030.25
2019-03-06T14:21:15.160Z,1031.27
2019-03-06T14:24:45.403Z,1034.97
2019-03-06T14:28:15.894Z,1036.32
2019-03-06T14:31:47.045Z,1032.04
2019-03-06T14:35:17.864Z,1028.3
2019-03-06T14:38:48.116Z,1026.38
2019-03-06T14:42:18.192Z,1025.9
2019-03-06T14:45:48.399Z,1025.3
2019-03-06T14:49:18.504Z,1024.3
2019-03-06T14:52:48.789Z,1023.01
2019-03-06T14:56:19.175Z,1023.1
2019-03-06T14:59:49.241Z,1023.03
2019-03-06T15:03:19.318Z,1022.78
2019-03-06T15:06:49.423Z,1022.99
2019-03-06T15:10:19.759Z,1023.55
2019-03-06T15:13:49.944Z,1024.21
2019-03-06T15:17:19.990Z,1024.92
2019-03-06T15:20:50.165Z,1024.8
2019-03-06T15:24:20.341Z,1024.73
2019-03-06T15:27:50.337Z,1025.32
2019-03-06T15:31:20.413Z,1025.27
2019-03-06T15:34:51.751Z,1023.56
2019-03-06T15:38:22.014Z,1022.44
2019-03-06T15:42:00.092Z,1022
2019-03-06T15:45:33.846Z,1021.44
2019-03-06T15:49:03.981Z,1021.25
2019-03-06T15:52:34.027Z,1021.64
2019-03-06T15:56:04.113Z,1021.56
2019-03-06T15:59:34.139Z,1021.37
2019-03-06T16:00:23.420Z,1021.27
2019-03-06T16:03:53.483Z,1021.29
2019-03-06T16:07:23.599Z,1021.07
2019-03-06T16:10:53.664Z,1020.61
2019-03-06T16:14:23.850Z,1020.3
2019-03-06T16:17:55.642Z,1019.93
2019-03-06T16:21:25.812Z,1019.9
2019-03-06T16:24:55.897Z,1020.31
2019-03-06T16:28:25.943Z,1020.37
2019-03-06T16:31:56.018Z,1020.45
2019-03-06T16:35:27.153Z,1019.92
2019-03-06T16:38:57.320Z,1019.38
2019-03-06T16:42:27.376Z,1018.96
2019-03-06T16:45:57.491Z,1018.99
2019-03-06T16:49:27.557Z,1018.99
2019-03-06T16:52:58.073Z,1019.24
2019-03-06T16:56:28.218Z,1019.27
2019-03-06T16:59:58.435Z,1019.21
2019-03-06T17:03:28.467Z,1019.17
2019-03-06T17:06:58.766Z,1019.32
2019-03-06T17:10:29.352Z,1019
2019-03-06T17:13:59.437Z,1018.71
2019-03-06T17:17:29.503Z,1018.44
2019-03-06T17:20:59.618Z,1018.33
2019-03-06T17:24:29.794Z,1018.42
2019-03-06T17:27:59.969Z,1018.76
2019-03-06T17:31:29.969Z,1019.22
2019-03-06T17:35:00.185Z,1019.76
2019-03-06T17:38:31.386Z,1020.18
2019-03-06T17:42:01.673Z,1019.83
2019-03-06T17:45:32.138Z,1020.22
2019-03-06T17:49:02.544Z,1020.17
2019-03-06T17:52:32.639Z,1019.73
2019-03-06T17:56:02.729Z,1019.57
2019-03-06T17:59:32.770Z,1018.93
2019-03-06T18:00:17.247Z,1018.95
2019-03-06T18:03:54.495Z,1018.71
2019-03-06T18:07:24.531Z,1017.94
2019-03-06T18:10:54.636Z,1017.77
2019-03-06T18:14:24.854Z,1017.67
2019-03-06T18:17:54.980Z,1017.25
2019-03-06T18:21:25.501Z,1016.96
2019-03-06T18:24:55.589Z,1016.47
2019-03-06T18:28:25.675Z,1016.24
2019-03-06T18:31:55.842Z,1016.01
2019-03-06T18:35:26.055Z,1016.01
2019-03-06T18:38:57.263Z,1015.85
2019-03-06T18:42:27.438Z,1015.52
2019-03-06T18:45:57.513Z,1015.3
2019-03-06T18:49:27.670Z,1014.96
2019-03-06T18:52:59.132Z,1014.86
2019-03-06T18:56:29.430Z,1014.52
2019-03-06T18:59:59.495Z,1014.39
2019-03-06T19:03:29.601Z,1014.01
2019-03-06T19:06:59.931Z,1013.65
2019-03-06T19:10:30.112Z,1013.59
2019-03-06T19:14:00.128Z,1013.15
2019-03-06T19:17:30.223Z,1012.86
2019-03-06T19:21:00.339Z,1012.56
2019-03-06T19:24:30.529Z,1011.94
2019-03-06T19:28:00.700Z,1011.44
2019-03-06T19:31:30.836Z,1011.33
2019-03-06T19:35:01.024Z,1011.16
2019-03-06T19:38:31.097Z,1010.8
2019-03-06T19:42:01.166Z,1010.7
2019-03-06T19:45:31.368Z,1010.82
2019-03-06T19:49:01.494Z,1010.82
2019-03-06T19:52:31.519Z,1010.67
2019-03-06T19:56:01.655Z,1010.69
2019-03-06T19:59:31.781Z,1010.5
2019-03-06T20:00:16.220Z,1010.49
2019-03-06T20:03:46.347Z,1010.34
2019-03-06T20:07:16.461Z,1010.19
2019-03-06T20:10:46.608Z,1009.99
2019-03-06T20:14:16.742Z,1009.8
2019-03-06T20:17:47.038Z,1009.59
2019-03-06T20:21:17.113Z,1009.73
2019-03-06T20:24:47.322Z,1009.55
2019-03-06T20:28:17.346Z,1009.49
2019-03-06T20:31:47.580Z,1009.14
2019-03-06T20:35:19.116Z,1009.19
2019-03-06T20:38:49.191Z,1008.99
2019-03-06T20:42:19.214Z,1009.08
2019-03-06T20:45:49.427Z,1009.12
2019-03-06T20:49:19.841Z,1008.95
2019-03-06T20:52:50.534Z,1008.76
2019-03-06T20:56:20.809Z,1008.22
2019-03-06T20:59:50.918Z,1008.19
2019-03-06T21:03:20.955Z,1007.68
2019-03-06T21:06:51.036Z,1007.36
2019-03-06T21:10:21.110Z,1007.21
2019-03-06T21:13:51.216Z,1007.13
2019-03-06T21:17:21.603Z,1006.64
2019-03-06T21:20:51.757Z,1006.05
2019-03-06T21:24:21.794Z,1005.33
2019-03-06T21:27:52.174Z,1005.88
2019-03-06T21:31:22.275Z,1005.69
2019-03-06T21:34:52.410Z,1005.6
2019-03-06T21:38:22.489Z,1005.29
2019-03-06T21:41:52.516Z,1005.24
2019-03-06T21:45:22.686Z,1004.85
2019-03-06T21:48:52.883Z,1003.8
2019-03-06T21:52:23.156Z,1003.61
2019-03-06T21:55:53.354Z,1003.22
2019-03-06T21:59:23.420Z,1003.08
2019-03-06T22:00:17.306Z,1002.97
2019-03-06T22:03:47.461Z,1002.44
2019-03-06T22:07:17.529Z,1002.62
2019-03-06T22:10:47.635Z,1002.72
2019-03-06T22:14:17.651Z,1002.67
2019-03-06T22:17:47.878Z,1002.57
2019-03-06T22:21:17.952Z,1002.46
2019-03-06T22:24:48.137Z,1002.01
2019-03-06T22:28:18.162Z,1001.23
2019-03-06T22:31:48.218Z,1001.04
2019-03-06T22:35:18.349Z,1000.79
2019-03-06T22:38:48.452Z,1000.64
2019-03-06T22:42:18.530Z,1000.43
2019-03-06T22:45:48.752Z,1000.52
2019-03-06T22:49:18.948Z,1000.46
2019-03-06T22:52:48.985Z,1000.19
2019-03-06T22:56:19.083Z,999.85
2019-03-06T22:59:49.223Z,999.66
2019-03-06T23:03:20.229Z,999.55
2019-03-06T23:06:50.344Z,999.52
2019-03-06T23:10:20.449Z,999.15
2019-03-06T23:13:50.626Z,998.8
2019-03-06T23:17:20.710Z,998.73
2019-03-06T23:20:50.868Z,998.85
2019-03-06T23:24:21.021Z,998.73
2019-03-06T23:27:51.277Z,997.83
2019-03-06T23:31:21.381Z,997.37
2019-03-06T23:34:51.456Z,997.17
2019-03-06T23:38:21.572Z,997.18
2019-03-06T23:41:51.907Z,997.59
2019-03-06T23:45:21.973Z,997.84
2019-03-06T23:48:52.958Z,998.08
2019-03-06T23:52:27.654Z,998.16
2019-03-06T23:55:57.769Z,998.24
2019-03-06T23:59:27.819Z,998.15
